Time;durP1;ratioP1;P1;durP2;ratioP2;P2;SDS_P1;SDS_P2;PMS_P1;PMS_P2;Temp;Humidity;BMP_temperature;BMP_pressure;BME280_temperature;BME280_humidity;BME280_pressure;Samples;Min_cycle;Max_cycle;Signal;HPM_P1;HPM_P2
2020/12/02 00:00:16;;;;;;;;;;;;;;;-1.48;87.11;101043.50;5115808;28;20019;-64
2020/12/02 00:02:50;;;;;;;80.70;34.85;;;;;;;-1.49;87.60;101050.97;5117766;28;19912;-64
2020/12/02 00:05:17;;;;;;;86.78;37.53;;;;;;;-1.49;88.03;101050.97;5117737;28;20023;-64
2020/12/02 00:07:44;;;;;;;100.55;41.35;;;;;;;-1.50;87.24;101051.25;5117298;28;20035;-65
2020/12/02 00:10:09;;;;;;;84.88;36.00;;;;;;;-1.49;87.57;101056.47;5117580;28;20050;-64
2020/12/02 00:12:35;;;;;;;91.55;36.33;;;;;;;-1.46;88.33;101060.56;5117587;28;20020;-64
2020/12/02 00:15:00;;;;;;;87.00;34.85;;;;;;;-1.46;87.78;101053.09;5117196;28;20068;-64
2020/12/02 00:17:25;;;;;;;91.63;35.72;;;;;;;-1.46;87.51;101055.84;5117577;28;20016;-64
2020/12/02 00:19:51;;;;;;;71.40;31.88;;;;;;;-1.46;88.11;101049.53;5117292;28;20429;-65
2020/12/02 00:22:20;;;;;;;72.30;32.28;;;;;;;-1.41;87.77;101050.22;5116236;28;21041;-65
2020/12/02 00:24:46;;;;;;;74.85;32.30;;;;;;;-1.40;87.28;101048.28;5117405;28;20095;-64
2020/12/02 00:27:30;;;;;;;81.28;32.60;;;;;;;-1.42;87.18;101045.03;5116254;28;20419;-65
2020/12/02 00:29:56;;;;;;;83.68;35.10;;;;;;;-1.47;86.49;101045.94;5117253;28;20393;-64
2020/12/02 00:32:29;;;;;;;71.90;32.08;;;;;;;-1.49;86.68;101047.38;5117128;27;20046;-65
2020/12/02 00:34:55;;;;;;;79.97;35.85;;;;;;;-1.52;87.32;101042.47;5117053;28;20389;-65
2020/12/02 00:37:21;;;;;;;84.43;35.25;;;;;;;-1.52;87.50;101043.31;5116817;28;20030;-65
2020/12/02 00:39:47;;;;;;;90.13;37.72;;;;;;;-1.52;87.50;101048.00;5117045;28;20018;-65
2020/12/02 00:42:12;;;;;;;80.72;35.13;;;;;;;-1.50;87.69;101040.25;5116940;28;20032;-65
2020/12/02 00:44:38;;;;;;;82.57;33.25;;;;;;;-1.52;87.60;101042.47;5116766;28;20101;-64
2020/12/02 00:47:09;;;;;;;80.28;34.75;;;;;;;-1.51;87.74;101039.41;5116942;28;20064;-64
2020/12/02 00:49:34;;;;;;;80.28;35.15;;;;;;;-1.50;87.61;101043.00;5116663;28;20111;-65
2020/12/02 00:52:00;;;;;;;86.60;35.20;;;;;;;-1.50;87.55;101051.25;5116527;28;20106;-65
2020/12/02 00:54:25;;;;;;;81.97;34.45;;;;;;;-1.52;88.15;101048.81;5110011;28;20016;-64
2020/12/02 00:56:50;;;;;;;82.90;34.47;;;;;;;-1.52;87.70;101057.09;5116892;28;20641;-64
2020/12/02 00:59:28;;;;;;;81.85;34.13;;;;;;;-1.53;88.02;101052.69;5116405;28;20111;-65
2020/12/02 01:01:59;;;;;;;82.97;34.72;;;;;;;-1.52;87.46;101048.00;5116754;28;20426;-64
2020/12/02 01:04:25;;;;;;;70.95;31.10;;;;;;;-1.53;87.86;101046.38;5115911;28;20015;-64
2020/12/02 01:06:52;;;;;;;69.50;30.73;;;;;;;-1.54;87.78;101051.06;5109629;28;20289;-64
2020/12/02 01:09:19;;;;;;;73.20;31.17;;;;;;;-1.59;87.68;101049.22;5116360;28;20072;-64
2020/12/02 01:11:45;;;;;;;63.88;27.40;;;;;;;-1.58;88.09;101044.53;5116256;28;20433;-64
2020/12/02 01:14:16;;;;;;;61.42;28.42;;;;;;;-1.58;87.68;101044.53;5116519;28;20035;-64
2020/12/02 01:16:44;;;;;;;58.35;26.77;;;;;;;-1.60;87.68;101053.09;5116156;28;20019;-64
2020/12/02 01:19:13;;;;;;;66.50;28.73;;;;;;;-1.58;88.13;101045.34;5116212;28;20069;-64
2020/12/02 01:22:00;;;;;;;63.08;30.10;;;;;;;-1.63;87.49;101047.38;5115932;28;20035;-65
2020/12/02 01:24:33;;;;;;;58.10;26.75;;;;;;;-1.65;87.76;101055.94;5113356;28;20381;-65
2020/12/02 01:27:11;;;;;;;62.22;29.40;;;;;;;-1.63;87.85;101050.97;5116165;28;20047;-65
2020/12/02 01:29:38;;;;;;;72.25;31.13;;;;;;;-1.63;88.08;101048.22;5112165;28;20023;-64
2020/12/02 01:32:05;;;;;;;56.03;26.98;;;;;;;-1.65;87.69;101050.41;5115783;28;20396;-64
2020/12/02 01:34:30;;;;;;;61.85;26.58;;;;;;;-1.65;87.61;101044.91;5115665;28;20047;-65
2020/12/02 01:37:02;;;;;;;55.35;27.92;;;;;;;-1.62;87.56;101049.84;5116042;28;20050;-65
2020/12/02 01:39:31;;;;;;;61.75;30.77;;;;;;;-1.62;88.00;101058.13;5113344;28;20019;-65
2020/12/02 01:41:56;;;;;;;60.35;29.40;;;;;;;-1.60;88.02;101053.09;5115874;28;20388;-65
2020/12/02 01:44:22;;;;;;;61.67;28.50;;;;;;;-1.59;88.06;101045.66;5115774;28;20098;-65
2020/12/02 01:47:00;;;;;;;56.58;27.05;;;;;;;-1.59;88.10;101042.91;5115735;28;20300;-64
2020/12/02 01:49:54;;;;;;;60.20;27.77;;;;;;;-1.59;87.87;101051.97;5115389;28;20051;-65
2020/12/02 01:52:28;;;;;;;56.17;26.52;;;;;;;-1.54;88.21;101055.75;5115694;28;20049;-66
2020/12/02 01:55:00;;;;;;;67.75;31.77;;;;;;;-1.57;87.99;101046.97;5114066;28;20370;-65
2020/12/02 01:57:33;;;;;;;62.55;28.73;;;;;;;-1.56;88.01;101047.78;5115432;28;20057;-64
2020/12/02 02:00:05;;;;;;;59.25;28.88;;;;;;;-1.53;87.84;101043.59;5115752;28;20008;-64
2020/12/02 02:02:40;;;;;;;76.70;32.05;;;;;;;-1.46;88.29;101052.28;5115292;28;20042;-65
2020/12/02 02:05:25;;;;;;;78.63;32.25;;;;;;;-1.47;87.67;101045.94;5115051;28;20418;-65
2020/12/02 02:07:53;;;;;;;79.82;32.45;;;;;;;-1.49;87.83;101047.38;5115527;28;20031;-65
2020/12/02 02:10:23;;;;;;;74.13;31.60;;;;;;;-1.51;88.12;101052.38;5115426;28;20081;-65
2020/12/02 02:12:55;;;;;;;69.13;30.02;;;;;;;-1.50;88.19;101046.56;5115490;28;20069;-65
2020/12/02 02:15:40;;;;;;;72.43;32.97;;;;;;;-1.46;88.31;101047.59;5115450;28;20315;-68
2020/12/02 02:18:10;;;;;;;72.30;32.47;;;;;;;-1.45;88.15;101042.88;5114932;28;20483;-65
2020/12/02 02:20:42;;;;;;;71.45;31.67;;;;;;;-1.44;87.43;101050.03;5115302;28;20487;-66
2020/12/02 02:23:11;;;;;;;75.25;34.58;;;;;;;-1.44;88.02;101050.03;5115688;28;20015;-65
2020/12/02 02:25:37;;;;;;;80.90;34.35;;;;;;;-1.44;87.50;101045.34;5114854;28;20345;-67
2020/12/02 02:28:04;;;;;;;74.68;33.03;;;;;;;-1.43;87.54;101049.72;5115355;28;20028;-65
2020/12/02 02:30:30;;;;;;;70.35;32.17;;;;;;;-1.42;87.62;101053.31;5115078;28;20333;-64
2020/12/02 02:32:56;;;;;;;76.80;33.72;;;;;;;-1.42;87.58;101047.78;5112947;28;20024;-65
2020/12/02 02:35:21;;;;;;;72.60;32.40;;;;;;;-1.41;87.25;101055.75;5112827;28;20437;-65
2020/12/02 02:37:47;;;;;;;66.45;30.08;;;;;;;-1.42;87.10;101047.78;5114948;28;20106;-65
2020/12/02 02:40:13;;;;;;;66.97;30.58;;;;;;;-1.45;86.78;101049.22;5115036;28;20019;-65
2020/12/02 02:42:44;;;;;;;69.20;31.58;;;;;;;-1.51;86.77;101044.94;5115045;28;20034;-65
2020/12/02 02:45:14;;;;;;;64.55;30.90;;;;;;;-1.57;86.62;101046.97;5115120;28;20027;-65
2020/12/02 02:47:39;;;;;;;68.25;31.60;;;;;;;-1.60;86.68;101047.59;5114750;28;20035;-65
2020/12/02 02:50:11;;;;;;;69.85;32.33;;;;;;;-1.63;86.52;101041.88;5114906;28;20049;-65
2020/12/02 02:52:38;;;;;;;67.78;30.60;;;;;;;-1.64;87.27;101043.81;5113530;28;20012;-65
2020/12/02 02:55:04;;;;;;;67.05;30.35;;;;;;;-1.63;86.94;101044.63;5114899;28;20430;-65
2020/12/02 02:57:29;;;;;;;68.68;29.63;;;;;;;-1.65;86.98;101044.09;5114829;28;20109;-65
2020/12/02 02:59:54;;;;;;;68.93;30.42;;;;;;;-1.64;87.64;101040.25;5115189;28;20038;-65
2020/12/02 03:02:20;;;;;;;69.38;31.50;;;;;;;-1.66;87.14;101035.00;5114559;28;20107;-65
2020/12/02 03:04:45;;;;;;;76.10;33.15;;;;;;;-1.69;86.37;101032.03;5114667;28;20069;-65
2020/12/02 03:07:15;;;;;;;70.72;32.05;;;;;;;-1.71;86.75;101024.09;5114922;28;20015;-65
2020/12/02 03:09:42;;;;;;;70.55;33.78;;;;;;;-1.72;86.76;101029.91;5113475;28;20036;-65
2020/12/02 03:12:07;;;;;;;67.57;30.73;;;;;;;-1.75;87.05;101050.63;5115001;28;20418;-65
2020/12/02 03:14:33;;;;;;;72.30;31.40;;;;;;;-1.78;87.17;101034.69;5114663;28;20108;-65
2020/12/02 03:17:00;;;;;;;63.28;29.85;;;;;;;-1.80;86.83;101034.19;5115010;28;20027;-65
2020/12/02 03:19:32;;;;;;;68.00;30.27;;;;;;;-1.81;87.01;101040.81;5114500;28;20411;-65
2020/12/02 03:22:03;;;;;;;66.00;29.60;;;;;;;-1.82;86.66;101032.88;5114881;28;20069;-65
2020/12/02 03:24:29;;;;;;;69.53;30.98;;;;;;;-1.87;86.91;101031.03;5114360;28;20019;-65
2020/12/02 03:26:54;;;;;;;59.60;29.45;;;;;;;-1.88;86.78;101032.16;5114891;28;20041;-65
2020/12/02 03:29:22;;;;;;;66.32;29.50;;;;;;;-1.93;87.32;101032.22;5117228;28;20046;-65
2020/12/02 03:31:47;;;;;;;72.07;34.25;;;;;;;-1.95;86.47;101029.75;5118040;28;20055;-65
2020/12/02 03:34:14;;;;;;;69.70;31.27;;;;;;;-1.96;87.49;101030.88;5118386;28;20411;-65
2020/12/02 03:36:40;;;;;;;67.40;30.65;;;;;;;-1.97;87.42;101032.00;5118251;28;20034;-65
2020/12/02 03:39:07;;;;;;;72.97;33.30;;;;;;;-1.96;87.31;101025.38;5118242;28;20027;-65
2020/12/02 03:41:33;;;;;;;71.85;30.27;;;;;;;-1.95;87.56;101024.25;5117823;28;20025;-65
2020/12/02 03:43:58;;;;;;;71.85;30.92;;;;;;;-1.95;87.47;101029.75;5118243;28;20122;-65
2020/12/02 03:46:24;;;;;;;67.97;29.42;;;;;;;-1.94;87.60;101030.59;5118053;28;20027;-65
2020/12/02 03:48:51;;;;;;;73.70;30.92;;;;;;;-1.98;87.04;101024.03;5117501;28;20023;-65
2020/12/02 03:51:16;;;;;;;70.15;30.25;;;;;;;-2.02;87.24;101031.28;5118245;27;20030;-65
2020/12/02 03:53:41;;;;;;;81.10;34.38;;;;;;;-2.04;87.71;101020.56;5117839;28;20027;-65
2020/12/02 03:56:07;;;;;;;79.40;31.42;;;;;;;-2.02;87.70;101026.59;5113935;28;20318;-65
2020/12/02 03:58:32;;;;;;;64.88;29.10;;;;;;;-2.01;87.42;101030.97;5117773;28;20070;-65
2020/12/02 04:00:57;;;;;;;69.57;32.22;;;;;;;-2.00;87.42;101023.53;5117871;28;20027;-65
2020/12/02 04:03:23;;;;;;;59.83;27.98;;;;;;;-1.99;87.60;101022.41;5117708;28;20019;-65
2020/12/02 04:05:48;;;;;;;71.15;31.73;;;;;;;-1.98;87.60;101024.03;5117480;28;20024;-65
2020/12/02 04:08:14;;;;;;;68.68;30.00;;;;;;;-2.01;87.53;101021.91;5117711;28;20113;-65
2020/12/02 04:10:40;;;;;;;72.32;31.08;;;;;;;-2.07;87.77;101025.88;5117570;28;20127;-65
2020/12/02 04:13:07;;;;;;;66.80;30.02;;;;;;;-2.09;87.74;101028.94;5117643;28;20204;-65
2020/12/02 04:15:33;;;;;;;69.70;29.75;;;;;;;-2.08;87.79;101038.84;5117181;28;20024;-65
2020/12/02 04:17:58;;;;;;;71.57;31.05;;;;;;;-2.08;87.44;101032.50;5117537;28;20027;-65
2020/12/02 04:20:24;;;;;;;66.80;32.05;;;;;;;-2.08;87.81;101036.06;5117707;28;20107;-64
2020/12/02 04:22:52;;;;;;;67.35;31.08;;;;;;;-2.08;87.84;101032.50;5117201;28;20020;-66
2020/12/02 04:25:19;;;;;;;75.22;34.53;;;;;;;-2.05;88.00;101029.13;5116595;28;20095;-73
2020/12/02 04:27:44;;;;;;;76.18;32.83;;;;;;;-2.04;88.23;101033.53;5116869;28;20031;-71
2020/12/02 04:30:11;;;;;;;78.18;33.25;;;;;;;-2.03;88.08;101032.41;5117237;28;20063;-66
2020/12/02 04:32:36;;;;;;;66.70;30.95;;;;;;;-2.04;87.95;101028.03;5117131;28;20314;-64
2020/12/02 04:35:03;;;;;;;73.13;36.60;;;;;;;-2.05;87.70;101026.38;5117246;28;20031;-67
2020/12/02 04:37:33;;;;;;;70.32;31.40;;;;;;;-2.05;87.34;101029.13;5117170;28;20414;-64
2020/12/02 04:40:00;;;;;;;74.53;32.58;;;;;;;-2.09;87.99;101025.38;5114831;28;20024;-75
2020/12/02 04:42:34;;;;;;;76.25;33.53;;;;;;;-2.08;88.07;101029.75;5116626;28;20315;-63
2020/12/02 04:45:00;;;;;;;81.35;35.42;;;;;;;-2.08;88.16;101032.50;5116962;28;20434;-74
2020/12/02 04:47:38;;;;;;;86.22;36.03;;;;;;;-2.07;88.28;101028.63;5117103;28;20028;-73
2020/12/02 04:50:25;;;;;;;77.63;32.90;;;;;;;-2.07;88.01;101017.63;5116851;28;20116;-66
2020/12/02 04:53:17;;;;;;;89.10;37.35;;;;;;;-2.05;87.73;101015.38;5116248;28;20098;-73
2020/12/02 04:55:48;;;;;;;92.90;38.67;;;;;;;-2.07;88.13;101025.88;5114993;28;20036;-67
2020/12/02 04:58:22;;;;;;;84.60;35.45;;;;;;;-2.09;87.98;101017.91;5116183;28;20425;-65
2020/12/02 05:00:47;;;;;;;88.60;36.30;;;;;;;-2.10;87.68;101013.53;5116546;28;20099;-64
2020/12/02 05:03:15;;;;;;;87.05;37.25;;;;;;;-2.08;88.65;101018.72;5116575;28;20111;-66
2020/12/02 05:05:40;;;;;;;72.03;33.47;;;;;;;-2.09;88.25;101026.19;5115650;28;20023;-71
2020/12/02 05:08:19;;;;;;;80.32;34.08;;;;;;;-2.08;87.65;101024.25;5115701;28;20072;-67
2020/12/02 05:10:44;;;;;;;75.00;34.63;;;;;;;-2.09;87.71;101028.94;5115924;28;20460;-64
2020/12/02 05:13:10;;;;;;;85.03;34.83;;;;;;;-2.09;88.00;101039.13;5116241;28;20023;-72
2020/12/02 05:15:36;;;;;;;70.20;34.25;;;;;;;-2.13;88.16;101030.66;5116280;28;20099;-73
2020/12/02 05:18:13;;;;;;;73.03;33.05;;;;;;;-2.16;88.00;101030.44;5116458;28;20421;-72
2020/12/02 05:20:38;;;;;;;76.13;32.45;;;;;;;-2.16;88.27;101035.97;5115288;28;20349;-68
2020/12/02 05:23:16;;;;;;;81.55;37.05;;;;;;;-2.19;87.92;101034.63;5115775;28;20076;-64
2020/12/02 05:25:42;;;;;;;78.07;34.00;;;;;;;-2.22;87.58;101036.03;5115649;28;20303;-70
2020/12/02 05:28:26;;;;;;;77.00;32.83;;;;;;;-2.22;87.57;101044.28;5115772;28;20080;-73
2020/12/02 05:31:09;;;;;;;76.15;31.70;;;;;;;-2.19;87.73;101051.16;5115169;28;20046;-64
2020/12/02 05:33:35;;;;;;;72.28;34.17;;;;;;;-2.21;87.66;101045.91;5115915;28;20021;-74
2020/12/02 05:36:23;;;;;;;71.50;32.85;;;;;;;-2.23;87.63;101042.66;5115844;28;20051;-70
2020/12/02 05:39:11;;;;;;;72.95;34.15;;;;;;;-2.22;87.55;101044.28;5108898;28;20730;-73
2020/12/02 05:41:37;;;;;;;76.88;34.92;;;;;;;-2.23;87.93;101044.59;5113255;28;20098;-71
2020/12/02 05:44:16;;;;;;;84.38;35.97;;;;;;;-2.24;87.83;101043.78;5114558;28;20106;-71
2020/12/02 05:46:49;;;;;;;88.53;38.75;;;;;;;-2.21;88.12;101048.69;5113271;28;20118;-70
2020/12/02 05:49:52;;;;;;;104.38;49.75;;;;;;;-2.18;88.10;101052.78;5115345;28;20027;-71
2020/12/02 05:52:34;;;;;;;68.85;32.45;;;;;;;-2.16;88.13;101056.06;5092410;28;20031;-72
2020/12/02 05:55:10;;;;;;;74.90;32.33;;;;;;;-2.13;87.95;101054.63;5114827;28;20058;-64
2020/12/02 05:57:41;;;;;;;86.32;41.75;;;;;;;-2.17;87.96;101048.91;5113319;28;20051;-64
2020/12/02 06:00:09;;;;;;;80.70;34.88;;;;;;;-2.19;87.28;101049.22;5115596;28;20024;-64
2020/12/02 06:02:37;;;;;;;87.38;35.92;;;;;;;-2.22;87.22;101049.78;5115709;28;20043;-65
2020/12/02 06:05:09;;;;;;;78.90;35.35;;;;;;;-2.23;87.57;101045.41;5115675;28;20051;-65
2020/12/02 06:07:49;;;;;;;84.63;35.95;;;;;;;-2.25;87.61;101052.34;5115270;28;20019;-65
2020/12/02 06:10:16;;;;;;;78.20;35.03;;;;;;;-2.26;87.33;101050.69;5114493;28;20040;-65
2020/12/02 06:12:44;;;;;;;80.55;37.45;;;;;;;-2.28;87.12;101042.75;5113890;28;20082;-64
2020/12/02 06:15:23;;;;;;;75.65;33.28;;;;;;;-2.29;87.40;101052.13;5115168;28;20138;-64
2020/12/02 06:17:51;;;;;;;79.70;34.67;;;;;;;-2.31;87.42;101048.84;5115239;28;20080;-64
2020/12/02 06:20:23;;;;;;;78.35;34.13;;;;;;;-2.32;87.78;101052.72;5115271;28;20030;-64
2020/12/02 06:22:51;;;;;;;80.55;35.20;;;;;;;-2.28;87.67;101063.97;5115043;28;20110;-64
2020/12/02 06:25:56;;;;;;;85.13;36.05;;;;;;;-2.28;87.85;101053.75;5115280;28;20023;-65
2020/12/02 06:28:30;;;;;;;91.05;39.60;;;;;;;-2.27;87.58;101055.41;5113430;28;20012;-64
2020/12/02 06:31:19;;;;;;;85.38;38.53;;;;;;;-2.27;87.34;101060.91;5114676;28;20015;-64
2020/12/02 06:33:46;;;;;;;94.60;38.90;;;;;;;-2.28;87.71;101053.75;5115064;28;20422;-64
2020/12/02 06:36:20;;;;;;;85.00;38.33;;;;;;;-2.27;87.98;101055.41;5114724;28;20123;-64
2020/12/02 06:38:49;;;;;;;83.72;37.05;;;;;;;-2.29;87.86;101054.88;5114892;28;20111;-65
2020/12/02 06:41:26;;;;;;;99.30;41.80;;;;;;;-2.32;87.69;101052.72;5114861;28;20027;-65
2020/12/02 06:44:14;;;;;;;91.25;39.95;;;;;;;-2.33;87.59;101056.59;5114493;28;20027;-64
2020/12/02 06:46:55;;;;;;;79.85;35.33;;;;;;;-2.29;87.20;101054.06;5114697;28;20486;-71
2020/12/02 06:49:27;;;;;;;82.88;40.47;;;;;;;-2.34;87.69;101054.97;5114796;28;20357;-69
2020/12/02 06:52:00;;;;;;;85.00;38.95;;;;;;;-2.31;87.57;101053.53;5114633;28;20050;-64
2020/12/02 06:54:29;;;;;;;91.50;39.78;;;;;;;-2.32;87.70;101054.66;5114902;28;20028;-63
2020/12/02 06:57:02;;;;;;;79.18;36.20;;;;;;;-2.31;87.54;101057.13;5114826;28;20027;-71
2020/12/02 06:59:27;;;;;;;83.28;37.78;;;;;;;-2.30;88.06;101058.75;5115156;28;20695;-72
2020/12/02 07:02:00;;;;;;;83.80;36.58;;;;;;;-2.31;87.51;101057.13;5114824;28;20103;-72
2020/12/02 07:04:27;;;;;;;87.32;38.80;;;;;;;-2.27;87.44;101060.91;5118639;28;20031;-70
2020/12/02 07:06:57;;;;;;;92.57;42.08;;;;;;;-2.31;87.20;101057.13;5118800;28;20045;-64
2020/12/02 07:09:23;;;;;;;139.43;55.33;;;;;;;-2.33;86.92;101064.03;5116694;28;20067;-72
2020/12/02 07:11:56;;;;;;;109.25;50.25;;;;;;;-2.33;87.52;101070.38;5118651;28;20059;-72
2020/12/02 07:14:29;;;;;;;84.68;39.03;;;;;;;-2.36;87.44;101059.97;5118872;28;20031;-71
2020/12/02 07:16:59;;;;;;;84.32;43.47;;;;;;;-2.37;87.13;101072.09;5118500;28;20020;-71
2020/12/02 07:19:30;;;;;;;88.50;39.17;;;;;;;-2.36;87.01;101061.91;5118584;28;20039;-72
2020/12/02 07:22:12;;;;;;;90.57;43.47;;;;;;;-2.38;87.33;101064.94;5118195;28;20027;-71
2020/12/02 07:24:52;;;;;;;77.97;38.58;;;;;;;-2.44;87.33;101063.41;5114540;28;20020;-73
2020/12/02 07:27:20;;;;;;;85.18;39.63;;;;;;;-2.43;87.88;101069.72;5118542;28;20031;-72
2020/12/02 07:29:55;;;;;;;86.22;39.05;;;;;;;-2.43;87.56;101066.97;5117065;28;20019;-72
2020/12/02 07:32:22;;;;;;;96.30;41.85;;;;;;;-2.44;87.82;101066.16;5114468;28;20384;-73
2020/12/02 07:34:47;;;;;;;90.60;40.35;;;;;;;-2.44;87.80;101060.66;5117450;28;20087;-69
2020/12/02 07:37:16;;;;;;;102.18;44.55;;;;;;;-2.36;88.32;101062.72;5117407;28;20106;-72
2020/12/02 07:39:46;;;;;;;91.95;46.67;;;;;;;-2.31;87.90;101067.31;5113843;28;20028;-71
2020/12/02 07:42:15;;;;;;;91.15;39.63;;;;;;;-2.31;88.06;101057.13;5116949;28;20032;-66
2020/12/02 07:45:04;;;;;;;88.97;39.55;;;;;;;-2.28;87.63;101061.19;5117872;28;20414;-67
2020/12/02 07:47:31;;;;;;;101.07;44.85;;;;;;;-2.27;87.79;101060.91;5118229;27;20061;-62
2020/12/02 07:50:24;;;;;;;113.93;48.67;;;;;;;-2.26;87.77;101057.03;5117804;28;20019;-66
2020/12/02 07:52:55;;;;;;;107.45;48.08;;;;;;;-2.23;88.28;101050.91;5116692;28;20091;-69
2020/12/02 07:55:32;;;;;;;99.32;44.03;;;;;;;-2.19;87.90;101063.00;5117957;28;20045;-70
2020/12/02 07:57:58;;;;;;;81.15;38.47;;;;;;;-2.07;87.72;101070.75;5114004;28;20114;-69
2020/12/02 08:00:41;;;;;;;94.28;38.08;;;;;;;-2.11;87.03;101066.16;5117740;28;20043;-65
2020/12/02 08:03:25;;;;;;;73.72;35.40;;;;;;;-2.14;86.66;101069.53;5116820;28;20034;-66
2020/12/02 08:06:20;;;;;;;76.35;35.25;;;;;;;-2.15;86.57;101068.72;5117725;28;20015;-68
2020/12/02 08:08:45;;;;;;;91.05;40.47;;;;;;;-2.21;87.08;101076.22;5086166;28;20043;-67
2020/12/02 08:11:16;;;;;;;75.57;35.70;;;;;;;-2.24;86.48;101085.09;5116153;28;20043;-64
2020/12/02 08:13:49;;;;;;;87.28;39.30;;;;;;;-2.33;86.22;101080.56;5116514;28;20110;-64
2020/12/02 08:16:40;;;;;;;81.80;39.95;;;;;;;-2.36;86.34;101090.25;5117875;28;20019;-67
2020/12/02 08:19:05;;;;;;;80.80;37.58;;;;;;;-2.39;86.47;101079.84;5117755;28;20027;-66
2020/12/02 08:21:32;;;;;;;81.00;38.78;;;;;;;-2.42;87.16;101083.19;5117377;28;20450;-73
2020/12/02 08:24:15;;;;;;;82.25;37.75;;;;;;;-2.44;86.63;101081.84;5117448;28;20050;-66
2020/12/02 08:26:43;;;;;;;79.18;35.47;;;;;;;-2.39;86.96;101087.28;5117147;28;20020;-72
2020/12/02 08:29:09;;;;;;;85.45;38.65;;;;;;;-2.36;87.10;101093.00;5116228;28;20062;-65
2020/12/02 08:31:35;;;;;;;99.97;48.65;;;;;;;-2.39;86.59;101095.53;5117413;28;20372;-66
2020/12/02 08:34:33;;;;;;;86.90;41.15;;;;;;;-2.46;86.56;101084.91;5116300;28;20082;-70
2020/12/02 08:37:18;;;;;;;86.18;37.45;;;;;;;-2.50;86.83;101083.84;5115891;28;20032;-66
2020/12/02 08:39:46;;;;;;;87.57;40.80;;;;;;;-2.52;86.49;101086.06;5107313;28;20476;-70
2020/12/02 08:42:23;;;;;;;94.25;41.28;;;;;;;-2.49;87.47;101074.47;5116647;28;20027;-65
2020/12/02 08:45:12;;;;;;;115.78;52.58;;;;;;;-2.45;87.26;101078.28;5116883;28;20326;-70
2020/12/02 08:47:38;;;;;;;122.00;50.15;;;;;;;-2.42;87.57;101088.69;5114678;28;20027;-68
2020/12/02 08:50:05;;;;;;;102.50;48.13;;;;;;;-2.36;87.63;101083.91;5116161;28;20026;-72
2020/12/02 08:52:31;;;;;;;90.88;42.42;;;;;;;-2.35;87.78;101075.38;5116566;28;20022;-71
2020/12/02 08:54:57;;;;;;;102.78;43.53;;;;;;;-2.34;87.79;101077.00;5114888;28;20106;-74
2020/12/02 08:57:22;;;;;;;104.00;47.10;;;;;;;-2.30;87.88;101082.72;5116782;28;20054;-75
2020/12/02 08:59:47;;;;;;;101.53;45.50;;;;;;;-2.27;88.01;101082.13;5116320;28;20099;-72
2020/12/02 09:02:16;;;;;;;108.53;47.45;;;;;;;-2.28;87.71;101081.28;5115979;28;20073;-71
2020/12/02 09:04:45;;;;;;;113.05;48.58;;;;;;;-2.34;87.27;101085.25;5116203;28;20436;-72
2020/12/02 09:07:12;;;;;;;118.47;50.25;;;;;;;-2.35;87.13;101069.84;5116063;28;20016;-72
2020/12/02 09:09:37;;;;;;;108.43;49.55;;;;;;;-2.32;87.36;101073.94;5112150;28;20378;-74
2020/12/02 09:12:02;;;;;;;113.88;48.53;;;;;;;-2.30;87.24;101063.44;5116609;28;20051;-73
2020/12/02 09:14:28;;;;;;;113.55;49.95;;;;;;;-2.27;87.71;101065.59;5116323;28;20062;-74
2020/12/02 09:16:53;;;;;;;104.70;45.30;;;;;;;-2.26;87.39;101057.03;5115791;28;20023;-73
2020/12/02 09:19:19;;;;;;;93.85;43.75;;;;;;;-2.24;88.04;101059.47;5112909;28;20042;-73
2020/12/02 09:21:46;;;;;;;93.03;46.38;;;;;;;-2.22;87.91;101041.53;5115887;28;20026;-72
2020/12/02 09:24:12;;;;;;;97.93;43.42;;;;;;;-2.22;87.79;101038.78;5115733;28;20054;-74
2020/12/02 09:26:38;;;;;;;95.68;43.13;;;;;;;-2.20;87.24;101042.03;5115345;28;20051;-74
2020/12/02 09:29:07;;;;;;;93.53;41.45;;;;;;;-2.21;87.28;101032.16;5115693;27;20023;-73
2020/12/02 09:31:33;;;;;;;105.43;47.63;;;;;;;-2.21;87.49;101025.81;5115969;28;20028;-72
2020/12/02 09:34:02;;;;;;;97.03;40.47;;;;;;;-2.20;87.31;101033.78;5115168;28;20404;-73
2020/12/02 09:36:27;;;;;;;105.05;44.72;;;;;;;-2.20;87.49;101027.47;5115349;28;20015;-72
2020/12/02 09:38:53;;;;;;;110.97;48.47;;;;;;;-2.21;87.21;101025.81;5115416;28;20027;-73
2020/12/02 09:41:28;;;;;;;102.47;46.63;;;;;;;-2.28;87.27;101020.72;5115262;28;20463;-69
2020/12/02 09:44:12;;;;;;;112.00;49.38;;;;;;;-2.27;87.39;101024.28;5114392;28;20394;-73
2020/12/02 09:46:41;;;;;;;106.28;47.40;;;;;;;-2.26;87.63;101018.47;5114947;28;21399;-73
2020/12/02 09:49:08;;;;;;;108.75;46.78;;;;;;;-2.25;87.30;101011.84;5110659;28;20039;-74
2020/12/02 09:51:33;;;;;;;103.05;42.50;;;;;;;-2.24;87.58;101019.00;5115687;28;20056;-73
2020/12/02 09:53:59;;;;;;;115.00;50.10;;;;;;;-2.23;87.62;101015.13;5115317;28;20110;-74
2020/12/02 09:56:27;;;;;;;120.35;51.72;;;;;;;-2.24;87.84;101016.22;5115865;28;20060;-73
2020/12/02 09:58:57;;;;;;;118.85;48.85;;;;;;;-2.16;87.97;101011.19;5111662;28;20015;-71
2020/12/02 10:01:41;;;;;;;106.43;46.38;;;;;;;-2.10;87.96;101002.50;5115234;28;20045;-72
2020/12/02 10:04:50;;;;;;;96.75;42.92;;;;;;;-2.01;88.02;100994.34;5109015;28;20019;-73
2020/12/02 10:07:32;;;;;;;96.40;42.95;;;;;;;-2.02;87.36;100987.22;5106952;28;20063;-72
2020/12/02 10:10:35;;;;;;;114.70;47.00;;;;;;;-2.01;87.81;100988.84;5114812;28;20040;-73
2020/12/02 10:13:09;;;;;;;98.20;43.72;;;;;;;-1.93;88.19;100988.13;5113146;28;20101;-74
2020/12/02 10:15:46;;;;;;;99.90;45.17;;;;;;;-1.89;87.74;100989.19;5115315;28;20065;-68
2020/12/02 10:18:28;;;;;;;100.00;43.17;;;;;;;-1.87;87.75;100992.44;5097218;28;20442;-66
2020/12/02 10:21:03;;;;;;;113.88;49.35;;;;;;;-1.89;87.88;100984.47;5113456;28;20024;-72
2020/12/02 10:23:57;;;;;;;105.30;46.35;;;;;;;-1.87;87.72;100971.22;5114557;28;20057;-63
2020/12/02 10:26:29;;;;;;;96.20;42.85;;;;;;;-1.78;87.84;100984.28;5114248;28;20042;-70
2020/12/02 10:29:33;;;;;;;;;;;;;;;-1.78;87.45;100978.75;5111793;28;20080;-63
2020/12/02 10:32:10;;;;;;;99.32;41.97;;;;;;;-1.73;87.91;100978.66;5051389;28;19967;-74
2020/12/02 10:34:40;;;;;;;97.35;42.88;;;;;;;-1.73;87.80;100976.72;5051825;28;20119;-64
2020/12/02 10:37:08;;;;;;;108.22;47.10;;;;;;;-1.73;87.49;100976.72;5088309;28;20039;-74
2020/12/02 10:39:34;;;;;;;97.07;41.45;;;;;;;-1.70;87.02;100964.25;5119442;28;20026;-74
2020/12/02 10:42:11;;;;;;;104.18;47.75;;;;;;;-1.70;87.11;100976.09;5119268;28;20102;-74
2020/12/02 10:44:39;;;;;;;105.20;47.22;;;;;;;-1.70;87.02;100970.59;5118934;28;20020;-75
2020/12/02 10:47:07;;;;;;;108.22;45.30;;;;;;;-1.74;87.33;100957.75;5112985;28;20020;-75
2020/12/02 10:49:33;;;;;;;104.78;45.03;;;;;;;-1.75;87.46;100948.66;5119371;28;20035;-74
2020/12/02 10:52:00;;;;;;;98.32;45.00;;;;;;;-1.72;87.02;100950.78;5118441;28;20022;-75
2020/12/02 10:54:32;;;;;;;155.23;60.08;;;;;;;-1.69;87.60;100958.44;5119262;28;20031;-73
2020/12/02 10:56:58;;;;;;;142.18;59.17;;;;;;;-1.65;87.51;100950.38;5117978;28;20045;-76
2020/12/02 10:59:25;;;;;;;91.38;43.08;;;;;;;-1.64;87.88;100928.03;5118807;28;20016;-74
2020/12/02 11:01:52;;;;;;;96.13;41.83;;;;;;;-1.61;87.33;100932.94;5117805;28;20012;-78
2020/12/02 11:04:19;;;;;;;90.45;40.50;;;;;;;-1.61;87.35;100929.38;5100996;28;20319;-78
2020/12/02 11:07:09;;;;;;;90.88;41.45;;;;;;;-1.58;87.90;100929.56;5118353;27;20027;-79
2020/12/02 11:09:57;;;;;;;91.72;40.47;;;;;;;-1.51;87.68;100925.56;5116971;27;20044;-77
2020/12/02 11:12:48;;;;;;;91.88;39.67;;;;;;;-1.48;87.49;100923.00;5118366;28;20288;-72
2020/12/02 11:15:45;;;;;;;87.30;41.83;;;;;;;-1.50;86.71;100913.41;5118437;28;20032;-78
2020/12/02 11:18:29;;;;;;;95.22;42.92;;;;;;;-1.52;86.43;100912.91;5072186;28;20039;-78
2020/12/02 11:21:24;;;;;;;92.47;43.17;;;;;;;-1.51;86.65;100912.59;5118001;28;20019;-77
2020/12/02 11:23:58;;;;;;;95.95;43.92;;;;;;;-1.47;87.19;100896.25;5080824;28;20031;-77
2020/12/02 11:26:29;;;;;;;109.20;49.05;;;;;;;-1.45;86.57;100905.03;5093618;28;20441;-75
2020/12/02 11:28:55;;;;;;;91.00;45.35;;;;;;;-1.43;86.48;100913.78;5098387;28;20028;-78